Weather at Athabasca Airport

Public forecast

Using degrees Celsius for public forecast. Weather courtesy of forecast.io.

Closest aviation weather report (METAR) to Athabasca Airport

Closest report is Slave Lake Airport, 63.4 nm (117.4 km) WNW.

2024/05/28 23:00 (retrieved 1 hour ago)

CYZH 282300Z AUTO 30005KT 9SM OVC120 15/05 A2980 RMK SLP105 DENSITY ALT 2500FT

Closest aviation forecast (TAF) to Athabasca Airport

Closest forecast is Slave Lake Airport, 63.4 nm (117.4 km) WNW.

2024/05/28 19:42 (retrieved 4 hours ago)

TAF CYZH 281840Z 2819/2907 VRB03KT P6SM SCT110 BKN220 FM282100 VRB03KT P6SM BKN110 FM290200 VRB03KT P6SM BKN080 OVC100 TEMPO 2902/2907 P6SM -SHRA RMK FCST BASED ON AUTO OBS NXT FCST BY 290100Z